createdAt,value
2023-09-01T00:00:22.846Z,9.90
2023-09-01T00:03:05.512Z,8.05
2023-09-01T00:05:36.759Z,8.25
2023-09-01T00:08:04.689Z,8.02
2023-09-01T00:10:32.552Z,8.45
2023-09-01T00:13:01.189Z,7.63
2023-09-01T00:15:28.871Z,8.88
2023-09-01T00:17:58.124Z,8.52
2023-09-01T00:20:26.192Z,9.85
2023-09-01T00:22:54.044Z,8.40
2023-09-01T00:25:21.854Z,9.65
2023-09-01T00:27:49.608Z,7.88
2023-09-01T00:30:17.446Z,11.43
2023-09-01T00:32:45.289Z,9.45
2023-09-01T00:35:13.067Z,8.63
2023-09-01T00:37:41.475Z,8.75
2023-09-01T00:40:10.307Z,8.45
2023-09-01T00:42:38.006Z,8.10
2023-09-01T00:45:05.973Z,8.60
2023-09-01T00:47:33.752Z,8.70
2023-09-01T00:50:09.112Z,7.20
2023-09-01T00:52:37.701Z,8.68
2023-09-01T00:55:06.294Z,6.25
2023-09-01T00:57:34.071Z,7.18
2023-09-01T01:00:01.940Z,8.05
2023-09-01T01:02:30.075Z,8.05
2023-09-01T01:04:57.956Z,9.23
2023-09-01T01:07:32.885Z,9.07
2023-09-01T01:10:06.341Z,9.15
2023-09-01T01:12:41.998Z,8.52
2023-09-01T01:15:11.201Z,7.82
2023-09-01T01:17:41.154Z,9.38
2023-09-01T01:20:21.212Z,8.20
2023-09-01T01:22:51.048Z,8.15
2023-09-01T01:25:18.783Z,7.18
2023-09-01T01:27:46.570Z,9.05
2023-09-01T01:30:15.599Z,7.45
2023-09-01T01:32:44.939Z,7.55
2023-09-01T01:35:26.012Z,7.03
2023-09-01T01:37:56.881Z,7.15
2023-09-01T01:40:24.955Z,7.15
2023-09-01T01:42:53.662Z,8.10
2023-09-01T01:45:23.272Z,6.97
2023-09-01T01:47:52.093Z,8.35
2023-09-01T01:50:20.113Z,7.60
2023-09-01T01:52:47.949Z,8.13
2023-09-01T01:55:15.680Z,9.02
2023-09-01T01:57:43.463Z,9.48
2023-09-01T02:00:16.364Z,8.05
2023-09-01T02:02:44.248Z,7.28
2023-09-01T02:05:12.287Z,7.90
2023-09-01T02:07:40.079Z,8.23
2023-09-01T02:10:08.997Z,7.78
2023-09-01T02:12:37.145Z,6.70
2023-09-01T02:15:10.278Z,6.85
2023-09-01T02:17:38.675Z,7.82
2023-09-01T02:20:19.712Z,7.40
2023-09-01T02:22:49.720Z,8.48
2023-09-01T02:25:17.636Z,8.15
2023-09-01T02:27:45.450Z,6.80
2023-09-01T02:30:14.483Z,8.23
2023-09-01T02:32:42.726Z,7.38
2023-09-01T02:35:10.761Z,8.60
2023-09-01T02:37:38.654Z,8.88
2023-09-01T02:40:12.222Z,7.30
2023-09-01T02:42:40.819Z,8.02
2023-09-01T02:45:10.339Z,8.35
2023-09-01T02:47:38.104Z,8.80
2023-09-01T02:50:06.683Z,7.80
2023-09-01T02:52:34.741Z,9.30
2023-09-01T02:55:02.497Z,8.18
2023-09-01T02:57:30.295Z,6.72
2023-09-01T02:59:58.181Z,10.77
2023-09-01T03:02:26.067Z,7.95
2023-09-01T03:04:54.959Z,9.15
2023-09-01T03:07:22.783Z,7.65
2023-09-01T03:09:50.461Z,7.55
2023-09-01T03:12:18.325Z,9.02
2023-09-01T03:14:46.067Z,8.52
2023-09-01T03:17:13.811Z,7.50
2023-09-01T03:19:41.622Z,8.15
2023-09-01T03:22:09.298Z,8.50
2023-09-01T03:24:37.277Z,8.52
2023-09-01T03:27:05.177Z,6.80
2023-09-01T03:29:33.136Z,9.63
2023-09-01T03:32:01.123Z,8.00
2023-09-01T03:34:28.972Z,8.93
2023-09-01T03:36:56.717Z,8.10
2023-09-01T03:39:24.439Z,8.52
2023-09-01T03:41:52.245Z,7.70
2023-09-01T03:44:19.938Z,10.13
2023-09-01T03:46:47.776Z,9.10
2023-09-01T03:49:15.517Z,9.00
2023-09-01T03:51:43.257Z,9.18
2023-09-01T03:54:10.966Z,8.05
2023-09-01T03:56:38.785Z,8.13
2023-09-01T03:59:07.585Z,11.02
2023-09-01T04:01:35.787Z,8.52
2023-09-01T04:04:03.709Z,7.75
2023-09-01T04:06:31.525Z,8.07
2023-09-01T04:08:59.541Z,9.60
2023-09-01T04:11:27.340Z,9.38
2023-09-01T04:13:57.102Z,8.38
2023-09-01T04:16:25.135Z,10.27
2023-09-01T04:18:53.063Z,10.52
2023-09-01T04:21:20.868Z,8.85
2023-09-01T04:23:48.746Z,7.30
2023-09-01T04:26:16.942Z,8.63
2023-09-01T04:28:44.726Z,8.23
2023-09-01T04:31:18.564Z,7.88
2023-09-01T04:33:48.359Z,9.48
2023-09-01T04:36:16.229Z,9.68
2023-09-01T04:38:44.215Z,8.00
2023-09-01T04:41:12.082Z,9.18
2023-09-01T04:43:40.259Z,8.57
2023-09-01T04:46:08.827Z,6.82
2023-09-01T04:48:36.751Z,9.13
2023-09-01T04:51:04.659Z,8.13
2023-09-01T04:53:33.811Z,8.63
2023-09-01T04:56:01.821Z,7.95
2023-09-01T04:58:29.643Z,8.30
2023-09-01T05:00:57.762Z,7.38
2023-09-01T05:03:25.670Z,8.90
2023-09-01T05:05:54.097Z,8.43
2023-09-01T05:08:22.392Z,8.05
2023-09-01T05:10:50.344Z,7.53
2023-09-01T05:13:18.161Z,7.60
2023-09-01T05:15:48.916Z,7.20
2023-09-01T05:18:17.509Z,8.48
2023-09-01T05:20:48.861Z,7.28
2023-09-01T05:23:16.712Z,6.60
2023-09-01T05:25:44.508Z,6.32
2023-09-01T05:28:12.737Z,8.27
2023-09-01T05:30:40.919Z,6.70
2023-09-01T05:33:08.772Z,5.90
2023-09-01T05:35:37.098Z,8.05
2023-09-01T05:38:05.025Z,6.63
2023-09-01T05:40:33.331Z,6.40
2023-09-01T05:43:01.137Z,7.38
2023-09-01T05:45:29.602Z,6.85
2023-09-01T05:47:58.069Z,6.45
2023-09-01T05:50:26.293Z,7.07
2023-09-01T05:52:54.199Z,8.93
2023-09-01T05:55:21.934Z,6.55
2023-09-01T05:57:49.670Z,6.25
2023-09-01T06:00:17.568Z,6.80
2023-09-01T06:02:45.383Z,6.50
2023-09-01T06:05:13.266Z,6.40
2023-09-01T06:07:41.121Z,7.63
2023-09-01T06:10:09.289Z,7.00
2023-09-01T06:12:37.041Z,6.93
2023-09-01T06:15:05.134Z,6.47
2023-09-01T06:17:45.514Z,7.10
2023-09-01T06:20:18.259Z,6.93
2023-09-01T06:22:47.764Z,7.40
2023-09-01T06:25:15.679Z,5.97
2023-09-01T06:27:43.460Z,7.18
2023-09-01T06:30:11.227Z,6.10
2023-09-01T06:32:38.985Z,6.22
2023-09-01T06:35:07.090Z,6.05
2023-09-01T06:37:34.937Z,6.07
2023-09-01T06:40:02.668Z,6.05
2023-09-01T06:42:30.536Z,7.72
2023-09-01T06:44:58.351Z,5.57
2023-09-01T06:47:26.189Z,5.80
2023-09-01T06:49:54.123Z,6.60
2023-09-01T06:52:21.967Z,6.60
2023-09-01T06:54:51.032Z,5.78
2023-09-01T06:57:18.762Z,6.10
2023-09-01T06:59:46.529Z,6.72
2023-09-01T07:02:14.449Z,5.93
2023-09-01T07:04:42.250Z,5.18
2023-09-01T07:07:10.040Z,5.60
2023-09-01T07:09:37.910Z,5.93
2023-09-01T07:12:06.571Z,4.93
2023-09-01T07:14:34.445Z,6.32
2023-09-01T07:17:02.243Z,5.10
2023-09-01T07:19:30.065Z,5.65
2023-09-01T07:21:57.874Z,5.55
2023-09-01T07:24:25.664Z,5.15
2023-09-01T07:26:53.650Z,6.07
2023-09-01T07:29:21.477Z,5.43
2023-09-01T07:31:49.408Z,5.35
2023-09-01T07:34:17.251Z,5.20
2023-09-01T07:36:44.964Z,6.30
2023-09-01T07:39:13.237Z,5.18
2023-09-01T07:41:41.003Z,5.45
2023-09-01T07:44:08.814Z,4.57
2023-09-01T07:46:36.602Z,5.88
2023-09-01T07:49:04.643Z,4.75
2023-09-01T07:51:32.519Z,4.70
2023-09-01T07:54:00.506Z,5.47
2023-09-01T07:56:28.302Z,5.80
2023-09-01T07:58:56.110Z,5.82
2023-09-01T08:01:23.943Z,4.10
2023-09-01T08:03:51.910Z,6.03
2023-09-01T08:06:19.769Z,3.88
2023-09-01T08:08:47.596Z,6.03
2023-09-01T08:11:15.431Z,4.13
2023-09-01T08:13:43.205Z,4.70
2023-09-01T08:16:11.073Z,4.80
2023-09-01T08:18:40.329Z,5.60
2023-09-01T08:21:08.108Z,5.97
2023-09-01T08:23:35.958Z,6.07
2023-09-01T08:26:06.932Z,5.30
2023-09-01T08:28:35.169Z,5.60
2023-09-01T08:31:04.578Z,4.50
2023-09-01T08:33:32.785Z,4.53
2023-09-01T08:36:05.179Z,5.78
2023-09-01T08:38:33.530Z,5.30
2023-09-01T08:41:01.895Z,5.95
2023-09-01T08:43:32.101Z,5.43
2023-09-01T08:46:13.279Z,5.47
2023-09-01T08:48:42.116Z,5.43
2023-09-01T08:51:10.022Z,5.68
2023-09-01T08:53:40.764Z,7.00
2023-09-01T08:56:08.668Z,5.40
2023-09-01T08:58:38.160Z,6.03
2023-09-01T09:01:06.096Z,5.85
2023-09-01T09:03:34.565Z,5.47
2023-09-01T09:06:04.490Z,6.13
2023-09-01T09:08:32.499Z,7.60
2023-09-01T09:11:00.514Z,6.60
2023-09-01T09:13:29.692Z,5.85
2023-09-01T09:16:14.173Z,8.88
2023-09-01T09:18:43.605Z,7.30
2023-09-01T09:21:30.766Z,7.10
2023-09-01T09:24:15.239Z,7.90
2023-09-01T09:26:48.101Z,7.53
2023-09-01T09:29:16.505Z,6.13
2023-09-01T09:31:46.022Z,6.97
2023-09-01T09:34:13.926Z,7.07
2023-09-01T09:36:41.865Z,7.65
2023-09-01T09:39:23.472Z,8.57
2023-09-01T09:41:51.814Z,6.45
2023-09-01T09:44:31.857Z,7.50
2023-09-01T09:47:00.157Z,7.53
2023-09-01T09:49:28.213Z,7.85
2023-09-01T09:51:56.141Z,6.60
2023-09-01T09:54:24.682Z,8.30
2023-09-01T09:56:53.045Z,7.30
2023-09-01T09:59:31.441Z,6.57
2023-09-01T10:02:00.480Z,7.47
2023-09-01T10:04:29.923Z,8.63
2023-09-01T10:06:58.208Z,6.55
2023-09-01T10:09:26.256Z,6.53
2023-09-01T10:11:55.217Z,7.40
2023-09-01T10:14:24.620Z,5.90
2023-09-01T10:16:52.580Z,6.63
2023-09-01T10:19:21.394Z,6.70
2023-09-01T10:21:49.200Z,6.13
2023-09-01T10:24:17.873Z,6.90
2023-09-01T10:26:45.811Z,6.18
2023-09-01T10:29:17.038Z,6.18
2023-09-01T10:31:46.497Z,5.85
2023-09-01T10:34:15.485Z,5.57
2023-09-01T10:36:44.521Z,4.63
2023-09-01T10:39:20.069Z,5.35
2023-09-01T10:41:52.404Z,5.40
2023-09-01T10:44:22.543Z,5.47
2023-09-01T10:46:50.686Z,5.82
2023-09-01T10:49:18.564Z,4.85
2023-09-01T10:51:47.783Z,4.32
2023-09-01T10:54:20.483Z,6.25
2023-09-01T10:57:01.839Z,4.82
2023-09-01T10:59:30.826Z,4.05
2023-09-01T11:01:58.689Z,3.80
2023-09-01T11:04:30.242Z,4.95
2023-09-01T11:07:01.232Z,4.22
2023-09-01T11:09:35.267Z,3.38
2023-09-01T11:12:06.930Z,3.65
2023-09-01T11:14:35.828Z,3.92
2023-09-01T11:17:06.890Z,3.90
2023-09-01T11:19:48.352Z,3.95
2023-09-01T11:22:16.498Z,4.15
2023-09-01T11:24:47.694Z,3.25
2023-09-01T11:27:15.618Z,5.07
2023-09-01T11:29:43.525Z,2.28
2023-09-01T11:32:11.494Z,2.22
2023-09-01T11:34:42.476Z,2.90
2023-09-01T11:37:10.343Z,3.50
2023-09-01T11:39:38.236Z,5.50
2023-09-01T11:42:06.321Z,4.10
2023-09-01T11:44:34.181Z,4.80
2023-09-01T11:47:02.020Z,3.95
2023-09-01T11:49:31.595Z,4.82
2023-09-01T11:52:00.929Z,4.00
2023-09-01T11:54:41.459Z,4.43
2023-09-01T11:57:12.904Z,5.50
2023-09-01T11:59:47.428Z,5.18
2023-09-01T12:02:22.229Z,5.90
2023-09-01T12:04:51.002Z,4.25
2023-09-01T12:07:26.278Z,4.18
2023-09-01T12:09:54.811Z,4.75
2023-09-01T12:12:22.937Z,4.60
2023-09-01T12:14:51.503Z,4.65
2023-09-01T12:17:20.267Z,6.00
2023-09-01T12:19:51.967Z,4.22
2023-09-01T12:22:19.913Z,5.32
2023-09-01T12:24:54.336Z,4.63
2023-09-01T12:27:22.207Z,5.10
2023-09-01T12:29:50.616Z,7.18
2023-09-01T12:32:19.363Z,6.03
2023-09-01T12:34:48.707Z,6.55
2023-09-01T12:37:16.767Z,6.22
2023-09-01T12:39:44.770Z,6.57
2023-09-01T12:42:12.609Z,5.28
2023-09-01T12:44:40.592Z,3.88
2023-09-01T12:47:10.291Z,5.22
2023-09-01T12:49:38.456Z,5.20
2023-09-01T12:52:06.605Z,4.20
2023-09-01T12:54:34.361Z,6.78
2023-09-01T12:57:02.226Z,4.43
2023-09-01T12:59:30.797Z,5.13
2023-09-01T13:01:58.795Z,3.92
2023-09-01T13:04:27.730Z,4.15
2023-09-01T13:06:55.524Z,4.78
2023-09-01T13:09:23.307Z,4.80
2023-09-01T13:11:51.124Z,4.35
2023-09-01T13:14:18.966Z,5.03
2023-09-01T13:16:46.841Z,3.92
2023-09-01T13:19:14.578Z,6.05
2023-09-01T13:21:42.390Z,4.78
2023-09-01T13:24:10.229Z,4.00
2023-09-01T13:26:38.035Z,4.75
2023-09-01T13:29:05.901Z,4.55
2023-09-01T13:31:33.756Z,3.35
2023-09-01T13:34:01.559Z,5.78
2023-09-01T13:36:29.418Z,5.15
2023-09-01T13:38:57.285Z,4.40
2023-09-01T13:41:25.108Z,5.35
2023-09-01T13:43:53.013Z,7.00
2023-09-01T13:46:26.195Z,3.33
2023-09-01T13:48:57.919Z,4.38
2023-09-01T13:51:29.876Z,4.78
2023-09-01T13:53:58.418Z,4.55
2023-09-01T13:56:26.327Z,3.38
2023-09-01T13:58:54.190Z,3.67
2023-09-01T14:01:22.109Z,3.65
2023-09-01T14:03:50.234Z,3.53
2023-09-01T14:06:17.988Z,3.72
2023-09-01T14:08:45.868Z,3.83
2023-09-01T14:11:13.670Z,4.32
2023-09-01T14:13:41.582Z,4.35
2023-09-01T14:16:12.202Z,3.22
2023-09-01T14:18:41.705Z,5.55
2023-09-01T14:21:09.564Z,3.17
2023-09-01T14:23:37.335Z,3.85
2023-09-01T14:26:05.073Z,3.63
2023-09-01T14:28:33.015Z,4.38
2023-09-01T14:31:01.038Z,3.47
2023-09-01T14:33:37.587Z,3.60
2023-09-01T14:36:15.335Z,3.30
2023-09-01T14:38:43.166Z,3.67
2023-09-01T14:41:16.776Z,4.65
2023-09-01T14:43:46.198Z,3.72
2023-09-01T14:46:14.733Z,5.47
2023-09-01T14:48:42.533Z,4.13
2023-09-01T14:51:10.600Z,3.67
2023-09-01T14:53:38.401Z,3.58
2023-09-01T14:56:09.853Z,4.05
2023-09-01T14:58:37.685Z,4.43
2023-09-01T15:01:05.502Z,3.83
2023-09-01T15:03:33.641Z,5.78
2023-09-01T15:06:01.519Z,4.70
2023-09-01T15:08:29.351Z,5.10
2023-09-01T15:10:57.099Z,5.72
2023-09-01T15:13:24.905Z,3.30
2023-09-01T15:15:52.690Z,4.63
2023-09-01T15:18:20.514Z,4.10
2023-09-01T15:20:48.435Z,3.15
2023-09-01T15:23:16.496Z,4.10
2023-09-01T15:25:44.382Z,4.32
2023-09-01T15:28:12.357Z,4.60
2023-09-01T15:30:40.772Z,5.65
2023-09-01T15:33:08.815Z,3.83
2023-09-01T15:35:36.675Z,4.88
2023-09-01T15:38:04.636Z,4.53
2023-09-01T15:40:33.251Z,4.47
2023-09-01T15:43:01.470Z,4.38
2023-09-01T15:45:29.506Z,2.85
2023-09-01T15:47:57.469Z,5.32
2023-09-01T15:50:39.202Z,3.55
2023-09-01T15:53:11.670Z,3.50
2023-09-01T15:55:39.536Z,3.97
2023-09-01T15:58:08.302Z,4.05
2023-09-01T16:00:37.617Z,4.63
2023-09-01T16:03:06.079Z,2.83
2023-09-01T16:05:34.720Z,5.32
2023-09-01T16:08:03.064Z,5.07
2023-09-01T16:10:31.783Z,3.90
2023-09-01T16:12:59.598Z,4.45
2023-09-01T16:15:27.537Z,3.55
2023-09-01T16:17:55.920Z,3.92
2023-09-01T16:20:26.003Z,4.85
2023-09-01T16:22:53.857Z,4.35
2023-09-01T16:25:21.773Z,3.90
2023-09-01T16:27:49.640Z,3.58
2023-09-01T16:30:19.667Z,3.58
2023-09-01T16:32:47.666Z,4.50
2023-09-01T16:35:24.567Z,5.32
2023-09-01T16:37:53.014Z,4.00
2023-09-01T16:40:25.565Z,4.45
2023-09-01T16:42:54.514Z,3.58
2023-09-01T16:45:22.758Z,5.03
2023-09-01T16:47:50.731Z,2.67
2023-09-01T16:50:18.744Z,3.85
2023-09-01T16:52:46.577Z,3.95
2023-09-01T16:55:14.782Z,4.65
2023-09-01T16:57:42.663Z,5.05
2023-09-01T17:00:11.010Z,2.67
2023-09-01T17:02:39.808Z,4.88
2023-09-01T17:05:07.880Z,4.28
2023-09-01T17:07:38.109Z,4.75
2023-09-01T17:10:07.299Z,5.55
2023-09-01T17:12:35.458Z,4.82
2023-09-01T17:15:03.938Z,5.07
2023-09-01T17:17:32.048Z,4.38
2023-09-01T17:19:59.875Z,3.35
2023-09-01T17:22:27.691Z,3.83
2023-09-01T17:24:55.537Z,3.17
2023-09-01T17:27:23.387Z,4.70
2023-09-01T17:29:51.176Z,5.85
2023-09-01T17:32:19.165Z,7.68
2023-09-01T17:34:47.693Z,3.28
2023-09-01T17:37:15.460Z,5.97
2023-09-01T17:39:43.500Z,3.75
2023-09-01T17:42:11.232Z,5.35
2023-09-01T17:44:39.101Z,3.90
2023-09-01T17:47:06.965Z,3.92
2023-09-01T17:49:34.930Z,4.68
2023-09-01T17:52:02.702Z,3.67
2023-09-01T17:54:30.611Z,5.30
2023-09-01T17:56:58.502Z,4.65
2023-09-01T17:59:26.322Z,4.05
2023-09-01T18:01:54.173Z,3.78
2023-09-01T18:04:21.989Z,3.83
2023-09-01T18:06:51.014Z,5.03
2023-09-01T18:09:19.034Z,4.03
2023-09-01T18:11:46.872Z,4.45
2023-09-01T18:14:14.643Z,3.35
2023-09-01T18:16:42.921Z,8.18
2023-09-01T18:19:10.986Z,3.97
2023-09-01T18:21:41.332Z,4.40
2023-09-01T18:24:16.545Z,4.63
2023-09-01T18:26:44.650Z,3.75
2023-09-01T18:29:18.572Z,5.05
2023-09-01T18:31:47.628Z,4.38
2023-09-01T18:34:15.502Z,4.78
2023-09-01T18:36:43.379Z,5.80
2023-09-01T18:39:12.044Z,3.53
2023-09-01T18:41:40.069Z,5.18
2023-09-01T18:44:08.823Z,6.32
2023-09-01T18:46:37.333Z,4.18
2023-09-01T18:49:11.013Z,4.18
2023-09-01T18:51:39.556Z,5.00
2023-09-01T18:54:21.471Z,3.40
2023-09-01T18:56:49.710Z,5.95
2023-09-01T18:59:23.737Z,4.63
2023-09-01T19:01:51.761Z,4.22
2023-09-01T19:04:19.538Z,4.75
2023-09-01T19:06:48.214Z,5.10
2023-09-01T19:09:19.049Z,5.43
2023-09-01T19:11:47.418Z,3.58
2023-09-01T19:14:15.418Z,5.30
2023-09-01T19:16:43.445Z,4.22
2023-09-01T19:19:11.503Z,4.70
2023-09-01T19:21:39.805Z,4.10
2023-09-01T19:24:08.440Z,4.90
2023-09-01T19:26:36.301Z,4.05
2023-09-01T19:29:12.310Z,6.00
2023-09-01T19:31:40.812Z,5.55
2023-09-01T19:34:10.517Z,5.68
2023-09-01T19:36:38.822Z,5.07
2023-09-01T19:39:07.454Z,4.22
2023-09-01T19:41:35.687Z,4.05
2023-09-01T19:44:04.605Z,4.38
2023-09-01T19:46:35.761Z,4.18
2023-09-01T19:49:07.123Z,4.05
2023-09-01T19:51:38.480Z,4.03
2023-09-01T19:54:06.475Z,4.93
2023-09-01T19:56:35.220Z,4.75
2023-09-01T19:59:05.667Z,4.55
2023-09-01T20:01:34.762Z,5.75
2023-09-01T20:04:03.460Z,5.15
2023-09-01T20:06:32.774Z,3.58
2023-09-01T20:09:12.688Z,5.07
2023-09-01T20:11:40.619Z,4.07
2023-09-01T20:14:08.926Z,5.82
2023-09-01T20:16:37.264Z,4.55
2023-09-01T20:19:13.821Z,5.35
2023-09-01T20:21:42.620Z,4.80
2023-09-01T20:24:10.610Z,4.32
2023-09-01T20:26:38.498Z,4.50
2023-09-01T20:29:06.403Z,4.88
2023-09-01T20:31:36.703Z,4.43
2023-09-01T20:34:08.161Z,5.93
2023-09-01T20:36:36.076Z,4.85
2023-09-01T20:39:04.112Z,5.22
2023-09-01T20:41:32.570Z,4.75
2023-09-01T20:44:00.492Z,4.05
2023-09-01T20:46:28.365Z,4.70
2023-09-01T20:48:56.240Z,5.53
2023-09-01T20:51:24.127Z,4.45
2023-09-01T20:53:51.939Z,4.53
2023-09-01T20:56:19.764Z,3.78
2023-09-01T20:58:47.565Z,4.47
2023-09-01T21:01:17.786Z,6.03
2023-09-01T21:03:45.753Z,4.85
2023-09-01T21:06:13.593Z,6.68
2023-09-01T21:08:41.431Z,6.25
2023-09-01T21:11:10.405Z,7.15
2023-09-01T21:13:38.193Z,3.42
2023-09-01T21:16:06.290Z,4.25
2023-09-01T21:18:34.189Z,6.78
2023-09-01T21:21:01.954Z,4.95
2023-09-01T21:23:29.857Z,6.50
2023-09-01T21:25:57.660Z,4.35
2023-09-01T21:28:25.470Z,4.22
2023-09-01T21:30:53.434Z,5.50
2023-09-01T21:33:22.627Z,5.55
2023-09-01T21:35:50.543Z,7.40
2023-09-01T21:38:18.354Z,4.75
2023-09-01T21:40:46.102Z,4.00
2023-09-01T21:43:13.899Z,4.28
2023-09-01T21:45:42.021Z,5.03
2023-09-01T21:48:10.049Z,5.25
2023-09-01T21:50:37.969Z,2.55
2023-09-01T21:53:05.767Z,3.17
2023-09-01T21:55:33.567Z,5.57
2023-09-01T21:58:01.453Z,5.40
2023-09-01T22:00:29.261Z,4.90
2023-09-01T22:02:57.120Z,4.65
2023-09-01T22:05:24.975Z,4.95
2023-09-01T22:07:52.707Z,5.03
2023-09-01T22:10:20.595Z,3.88
2023-09-01T22:12:48.312Z,3.85
2023-09-01T22:15:16.993Z,7.57
2023-09-01T22:17:44.940Z,6.35
2023-09-01T22:20:13.120Z,4.93
2023-09-01T22:22:40.806Z,4.68
2023-09-01T22:25:08.816Z,5.32
2023-09-01T22:27:37.148Z,3.80
2023-09-01T22:30:05.143Z,4.18
2023-09-01T22:32:33.180Z,3.88
2023-09-01T22:35:00.967Z,5.07
2023-09-01T22:37:28.782Z,5.93
2023-09-01T22:39:56.929Z,6.10
2023-09-01T22:42:24.689Z,5.50
2023-09-01T22:44:52.432Z,5.65
2023-09-01T22:47:20.173Z,5.47
2023-09-01T22:49:47.898Z,4.35
2023-09-01T22:52:16.501Z,4.20
2023-09-01T22:54:44.303Z,5.45
2023-09-01T22:57:12.148Z,4.63
2023-09-01T22:59:39.824Z,6.35
2023-09-01T23:02:08.151Z,6.50
2023-09-01T23:04:35.889Z,4.60
2023-09-01T23:07:04.351Z,5.00
2023-09-01T23:09:33.973Z,6.78
2023-09-01T23:12:01.704Z,4.13
2023-09-01T23:14:29.416Z,5.05
2023-09-01T23:16:57.197Z,3.92
2023-09-01T23:19:24.922Z,5.63
2023-09-01T23:21:53.004Z,4.57
2023-09-01T23:24:20.784Z,7.30
2023-09-01T23:26:48.554Z,5.40
2023-09-01T23:29:18.757Z,4.88
2023-09-01T23:31:47.710Z,4.38
2023-09-01T23:34:15.448Z,5.57
2023-09-01T23:36:43.431Z,5.45
2023-09-01T23:39:11.155Z,5.32
2023-09-01T23:41:38.910Z,4.28
2023-09-01T23:44:06.680Z,4.45
2023-09-01T23:46:34.420Z,4.47
2023-09-01T23:49:02.205Z,7.60
2023-09-01T23:51:29.887Z,5.60
2023-09-01T23:53:57.713Z,5.53
2023-09-01T23:56:25.433Z,5.45
2023-09-01T23:58:53.207Z,6.60
